sensor_id;sensor_type;location;lat;lon;timestamp;P1;durP1;ratioP1;P2;durP2;ratioP2
3841;SDS011;1936;47.074;15.336;2023-09-19T00:00:49;13.50;;;8.47;;
3841;SDS011;1936;47.074;15.336;2023-09-19T00:02:54;16.93;;;8.07;;
3841;SDS011;1936;47.074;15.336;2023-09-19T00:05:01;11.57;;;10.37;;
3841;SDS011;1936;47.074;15.336;2023-09-19T00:07:05;13.10;;;8.73;;
3841;SDS011;1936;47.074;15.336;2023-09-19T00:09:08;14.40;;;8.70;;
3841;SDS011;1936;47.074;15.336;2023-09-19T00:11:12;14.90;;;9.10;;
3841;SDS011;1936;47.074;15.336;2023-09-19T00:13:16;15.63;;;8.50;;
3841;SDS011;1936;47.074;15.336;2023-09-19T00:15:20;13.63;;;8.20;;
3841;SDS011;1936;47.074;15.336;2023-09-19T00:17:24;12.20;;;8.50;;
3841;SDS011;1936;47.074;15.336;2023-09-19T00:19:28;15.40;;;9.57;;
3841;SDS011;1936;47.074;15.336;2023-09-19T00:21:34;14.67;;;8.30;;
3841;SDS011;1936;47.074;15.336;2023-09-19T00:23:39;7.77;;;6.97;;
3841;SDS011;1936;47.074;15.336;2023-09-19T00:25:43;17.73;;;9.57;;
3841;SDS011;1936;47.074;15.336;2023-09-19T00:27:47;18.97;;;8.50;;
3841;SDS011;1936;47.074;15.336;2023-09-19T00:29:53;13.47;;;7.40;;
3841;SDS011;1936;47.074;15.336;2023-09-19T00:31:57;21.80;;;9.77;;
3841;SDS011;1936;47.074;15.336;2023-09-19T00:34:02;15.13;;;8.17;;
3841;SDS011;1936;47.074;15.336;2023-09-19T00:36:09;14.33;;;8.43;;
3841;SDS011;1936;47.074;15.336;2023-09-19T00:38:13;12.37;;;8.20;;
3841;SDS011;1936;47.074;15.336;2023-09-19T00:40:17;12.30;;;6.83;;
3841;SDS011;1936;47.074;15.336;2023-09-19T00:42:22;10.17;;;8.17;;
3841;SDS011;1936;47.074;15.336;2023-09-19T00:44:24;17.43;;;7.63;;
3841;SDS011;1936;47.074;15.336;2023-09-19T00:46:28;9.80;;;6.57;;
3841;SDS011;1936;47.074;15.336;2023-09-19T00:48:36;14.10;;;7.77;;
3841;SDS011;1936;47.074;15.336;2023-09-19T00:50:45;15.03;;;7.30;;
3841;SDS011;1936;47.074;15.336;2023-09-19T00:52:53;13.30;;;7.57;;
3841;SDS011;1936;47.074;15.336;2023-09-19T00:54:58;9.10;;;7.33;;
3841;SDS011;1936;47.074;15.336;2023-09-19T00:57:04;11.47;;;8.87;;
3841;SDS011;1936;47.074;15.336;2023-09-19T00:59:09;12.43;;;7.10;;
3841;SDS011;1936;47.074;15.336;2023-09-19T01:01:13;12.47;;;7.17;;
3841;SDS011;1936;47.074;15.336;2023-09-19T01:03:17;9.90;;;7.10;;
3841;SDS011;1936;47.074;15.336;2023-09-19T01:05:21;10.80;;;8.10;;
3841;SDS011;1936;47.074;15.336;2023-09-19T01:07:25;7.83;;;6.77;;
3841;SDS011;1936;47.074;15.336;2023-09-19T01:09:30;12.37;;;6.37;;
3841;SDS011;1936;47.074;15.336;2023-09-19T01:11:37;13.70;;;7.10;;
3841;SDS011;1936;47.074;15.336;2023-09-19T01:13:49;10.80;;;6.47;;
3841;SDS011;1936;47.074;15.336;2023-09-19T01:16:01;11.07;;;7.07;;
3841;SDS011;1936;47.074;15.336;2023-09-19T01:18:11;8.63;;;5.90;;
3841;SDS011;1936;47.074;15.336;2023-09-19T01:20:25;15.90;;;6.57;;
3841;SDS011;1936;47.074;15.336;2023-09-19T01:22:37;12.93;;;6.50;;
3841;SDS011;1936;47.074;15.336;2023-09-19T01:25:04;10.80;;;6.10;;
3841;SDS011;1936;47.074;15.336;2023-09-19T01:27:26;11.60;;;5.40;;
3841;SDS011;1936;47.074;15.336;2023-09-19T01:30:01;7.77;;;6.70;;
3841;SDS011;1936;47.074;15.336;2023-09-19T01:32:17;8.43;;;5.80;;
3841;SDS011;1936;47.074;15.336;2023-09-19T01:34:24;12.73;;;6.37;;
3841;SDS011;1936;47.074;15.336;2023-09-19T01:36:29;11.27;;;6.20;;
3841;SDS011;1936;47.074;15.336;2023-09-19T01:38:36;6.03;;;5.30;;
3841;SDS011;1936;47.074;15.336;2023-09-19T01:40:41;11.93;;;6.20;;
3841;SDS011;1936;47.074;15.336;2023-09-19T01:42:49;10.77;;;5.37;;
3841;SDS011;1936;47.074;15.336;2023-09-19T01:45:00;13.10;;;5.03;;
3841;SDS011;1936;47.074;15.336;2023-09-19T01:47:13;7.47;;;4.53;;
3841;SDS011;1936;47.074;15.336;2023-09-19T01:49:25;7.00;;;4.33;;
3841;SDS011;1936;47.074;15.336;2023-09-19T01:51:37;7.57;;;5.20;;
3841;SDS011;1936;47.074;15.336;2023-09-19T01:53:50;6.53;;;4.33;;
3841;SDS011;1936;47.074;15.336;2023-09-19T01:55:58;7.40;;;4.50;;
3841;SDS011;1936;47.074;15.336;2023-09-19T01:58:04;9.07;;;5.20;;
3841;SDS011;1936;47.074;15.336;2023-09-19T02:00:13;5.27;;;4.43;;
3841;SDS011;1936;47.074;15.336;2023-09-19T02:02:19;6.50;;;4.20;;
3841;SDS011;1936;47.074;15.336;2023-09-19T02:04:24;6.80;;;4.90;;
3841;SDS011;1936;47.074;15.336;2023-09-19T02:06:29;5.43;;;4.70;;
3841;SDS011;1936;47.074;15.336;2023-09-19T02:08:32;5.93;;;3.30;;
3841;SDS011;1936;47.074;15.336;2023-09-19T02:10:36;4.50;;;3.73;;
3841;SDS011;1936;47.074;15.336;2023-09-19T02:12:40;5.63;;;4.60;;
3841;SDS011;1936;47.074;15.336;2023-09-19T02:14:43;6.97;;;4.70;;
3841;SDS011;1936;47.074;15.336;2023-09-19T02:16:48;4.90;;;4.10;;
3841;SDS011;1936;47.074;15.336;2023-09-19T02:18:52;7.77;;;4.60;;
3841;SDS011;1936;47.074;15.336;2023-09-19T02:20:55;4.07;;;3.10;;
3841;SDS011;1936;47.074;15.336;2023-09-19T02:23:00;7.17;;;4.37;;
3841;SDS011;1936;47.074;15.336;2023-09-19T02:25:04;5.33;;;4.23;;
3841;SDS011;1936;47.074;15.336;2023-09-19T02:27:09;9.33;;;4.17;;
3841;SDS011;1936;47.074;15.336;2023-09-19T02:29:14;18.40;;;4.97;;
3841;SDS011;1936;47.074;15.336;2023-09-19T02:31:17;5.90;;;3.70;;
3841;SDS011;1936;47.074;15.336;2023-09-19T02:33:22;6.43;;;4.10;;
3841;SDS011;1936;47.074;15.336;2023-09-19T02:35:26;11.70;;;4.93;;
3841;SDS011;1936;47.074;15.336;2023-09-19T02:37:30;9.60;;;5.03;;
3841;SDS011;1936;47.074;15.336;2023-09-19T02:39:34;4.97;;;4.50;;
3841;SDS011;1936;47.074;15.336;2023-09-19T02:41:38;7.70;;;4.77;;
3841;SDS011;1936;47.074;15.336;2023-09-19T02:43:43;5.13;;;4.23;;
3841;SDS011;1936;47.074;15.336;2023-09-19T02:45:46;4.17;;;3.83;;
3841;SDS011;1936;47.074;15.336;2023-09-19T02:47:51;7.10;;;4.30;;
3841;SDS011;1936;47.074;15.336;2023-09-19T02:49:56;9.33;;;4.70;;
3841;SDS011;1936;47.074;15.336;2023-09-19T02:51:59;5.60;;;4.47;;
3841;SDS011;1936;47.074;15.336;2023-09-19T02:54:05;5.97;;;4.60;;
3841;SDS011;1936;47.074;15.336;2023-09-19T02:56:09;5.67;;;4.50;;
3841;SDS011;1936;47.074;15.336;2023-09-19T02:58:13;7.03;;;4.00;;
3841;SDS011;1936;47.074;15.336;2023-09-19T03:00:17;8.77;;;3.53;;
3841;SDS011;1936;47.074;15.336;2023-09-19T03:02:23;5.17;;;3.27;;
3841;SDS011;1936;47.074;15.336;2023-09-19T03:04:26;5.47;;;3.33;;
3841;SDS011;1936;47.074;15.336;2023-09-19T03:06:31;3.93;;;2.57;;
3841;SDS011;1936;47.074;15.336;2023-09-19T03:08:35;7.40;;;3.07;;
3841;SDS011;1936;47.074;15.336;2023-09-19T03:10:41;10.10;;;2.80;;
3841;SDS011;1936;47.074;15.336;2023-09-19T03:12:44;6.20;;;3.07;;
3841;SDS011;1936;47.074;15.336;2023-09-19T03:14:48;4.47;;;3.20;;
3841;SDS011;1936;47.074;15.336;2023-09-19T03:16:53;4.03;;;2.43;;
3841;SDS011;1936;47.074;15.336;2023-09-19T03:18:57;3.37;;;3.07;;
3841;SDS011;1936;47.074;15.336;2023-09-19T03:21:01;3.93;;;2.43;;
3841;SDS011;1936;47.074;15.336;2023-09-19T03:23:07;5.07;;;3.13;;
3841;SDS011;1936;47.074;15.336;2023-09-19T03:25:11;3.57;;;3.10;;
3841;SDS011;1936;47.074;15.336;2023-09-19T03:27:16;2.40;;;1.77;;
3841;SDS011;1936;47.074;15.336;2023-09-19T03:29:20;4.07;;;2.97;;
3841;SDS011;1936;47.074;15.336;2023-09-19T03:31:24;4.93;;;2.33;;
3841;SDS011;1936;47.074;15.336;2023-09-19T03:33:28;6.53;;;2.60;;
3841;SDS011;1936;47.074;15.336;2023-09-19T03:35:34;1.93;;;1.73;;
3841;SDS011;1936;47.074;15.336;2023-09-19T03:37:38;4.93;;;2.37;;
3841;SDS011;1936;47.074;15.336;2023-09-19T03:39:44;2.97;;;1.70;;
3841;SDS011;1936;47.074;15.336;2023-09-19T03:41:46;2.63;;;2.07;;
3841;SDS011;1936;47.074;15.336;2023-09-19T03:43:51;5.80;;;1.77;;
3841;SDS011;1936;47.074;15.336;2023-09-19T03:45:55;9.53;;;2.57;;
3841;SDS011;1936;47.074;15.336;2023-09-19T03:47:59;2.60;;;1.80;;
3841;SDS011;1936;47.074;15.336;2023-09-19T03:50:02;6.63;;;1.93;;
3841;SDS011;1936;47.074;15.336;2023-09-19T03:52:06;8.30;;;2.00;;
3841;SDS011;1936;47.074;15.336;2023-09-19T03:54:10;2.20;;;1.77;;
3841;SDS011;1936;47.074;15.336;2023-09-19T03:56:15;3.73;;;1.90;;
3841;SDS011;1936;47.074;15.336;2023-09-19T03:58:19;3.10;;;2.30;;
3841;SDS011;1936;47.074;15.336;2023-09-19T04:00:23;7.03;;;2.40;;
3841;SDS011;1936;47.074;15.336;2023-09-19T04:02:28;8.80;;;2.97;;
3841;SDS011;1936;47.074;15.336;2023-09-19T04:04:34;3.83;;;2.10;;
3841;SDS011;1936;47.074;15.336;2023-09-19T04:06:39;3.90;;;1.77;;
3841;SDS011;1936;47.074;15.336;2023-09-19T04:08:43;3.07;;;2.47;;
3841;SDS011;1936;47.074;15.336;2023-09-19T04:10:47;2.83;;;1.80;;
3841;SDS011;1936;47.074;15.336;2023-09-19T04:12:56;4.33;;;2.17;;
3841;SDS011;1936;47.074;15.336;2023-09-19T04:15:00;3.67;;;1.90;;
3841;SDS011;1936;47.074;15.336;2023-09-19T04:17:02;3.70;;;2.33;;
3841;SDS011;1936;47.074;15.336;2023-09-19T04:19:10;2.10;;;1.67;;
3841;SDS011;1936;47.074;15.336;2023-09-19T04:21:16;6.30;;;3.03;;
3841;SDS011;1936;47.074;15.336;2023-09-19T04:23:21;6.33;;;2.67;;
3841;SDS011;1936;47.074;15.336;2023-09-19T04:25:24;4.70;;;1.93;;
3841;SDS011;1936;47.074;15.336;2023-09-19T04:27:29;9.07;;;2.03;;
3841;SDS011;1936;47.074;15.336;2023-09-19T04:29:34;9.40;;;2.70;;
3841;SDS011;1936;47.074;15.336;2023-09-19T04:31:39;2.10;;;1.73;;
3841;SDS011;1936;47.074;15.336;2023-09-19T04:33:45;4.63;;;2.40;;
3841;SDS011;1936;47.074;15.336;2023-09-19T04:35:49;7.73;;;2.47;;
3841;SDS011;1936;47.074;15.336;2023-09-19T04:37:52;3.97;;;1.90;;
3841;SDS011;1936;47.074;15.336;2023-09-19T04:39:56;4.40;;;1.67;;
3841;SDS011;1936;47.074;15.336;2023-09-19T04:41:58;2.40;;;1.70;;
3841;SDS011;1936;47.074;15.336;2023-09-19T04:44:02;2.10;;;1.90;;
3841;SDS011;1936;47.074;15.336;2023-09-19T04:46:07;7.33;;;2.20;;
3841;SDS011;1936;47.074;15.336;2023-09-19T04:48:10;3.27;;;1.90;;
3841;SDS011;1936;47.074;15.336;2023-09-19T04:50:16;3.50;;;2.50;;
3841;SDS011;1936;47.074;15.336;2023-09-19T04:52:20;3.10;;;2.20;;
3841;SDS011;1936;47.074;15.336;2023-09-19T04:54:23;2.90;;;1.80;;
3841;SDS011;1936;47.074;15.336;2023-09-19T04:56:26;3.40;;;1.90;;
3841;SDS011;1936;47.074;15.336;2023-09-19T04:58:30;3.80;;;1.80;;
3841;SDS011;1936;47.074;15.336;2023-09-19T05:00:33;7.13;;;1.87;;
3841;SDS011;1936;47.074;15.336;2023-09-19T05:02:38;3.40;;;1.90;;
3841;SDS011;1936;47.074;15.336;2023-09-19T05:04:42;3.20;;;2.20;;
3841;SDS011;1936;47.074;15.336;2023-09-19T05:06:45;7.50;;;2.00;;
3841;SDS011;1936;47.074;15.336;2023-09-19T05:08:49;2.90;;;1.67;;
3841;SDS011;1936;47.074;15.336;2023-09-19T05:10:54;4.00;;;1.73;;
3841;SDS011;1936;47.074;15.336;2023-09-19T05:12:57;2.90;;;1.30;;
3841;SDS011;1936;47.074;15.336;2023-09-19T05:15:02;4.10;;;2.23;;
3841;SDS011;1936;47.074;15.336;2023-09-19T05:17:06;2.50;;;1.93;;
3841;SDS011;1936;47.074;15.336;2023-09-19T05:19:11;2.13;;;1.60;;
3841;SDS011;1936;47.074;15.336;2023-09-19T05:21:15;4.70;;;1.60;;
3841;SDS011;1936;47.074;15.336;2023-09-19T05:23:19;1.93;;;1.73;;
3841;SDS011;1936;47.074;15.336;2023-09-19T05:25:22;2.90;;;1.33;;
3841;SDS011;1936;47.074;15.336;2023-09-19T05:27:24;3.37;;;1.67;;
3841;SDS011;1936;47.074;15.336;2023-09-19T05:29:28;4.07;;;2.80;;
3841;SDS011;1936;47.074;15.336;2023-09-19T05:31:31;4.40;;;1.50;;
3841;SDS011;1936;47.074;15.336;2023-09-19T05:33:35;2.70;;;1.40;;
3841;SDS011;1936;47.074;15.336;2023-09-19T05:35:40;2.27;;;1.50;;
3841;SDS011;1936;47.074;15.336;2023-09-19T05:37:43;1.87;;;1.40;;
3841;SDS011;1936;47.074;15.336;2023-09-19T05:39:47;1.83;;;1.17;;
3841;SDS011;1936;47.074;15.336;2023-09-19T05:41:51;2.67;;;1.40;;
3841;SDS011;1936;47.074;15.336;2023-09-19T05:43:54;2.70;;;1.50;;
3841;SDS011;1936;47.074;15.336;2023-09-19T05:45:59;2.90;;;1.03;;
3841;SDS011;1936;47.074;15.336;2023-09-19T05:48:07;1.87;;;1.63;;
3841;SDS011;1936;47.074;15.336;2023-09-19T05:50:12;5.43;;;1.40;;
3841;SDS011;1936;47.074;15.336;2023-09-19T05:52:17;1.80;;;1.33;;
3841;SDS011;1936;47.074;15.336;2023-09-19T05:54:21;2.73;;;2.00;;
3841;SDS011;1936;47.074;15.336;2023-09-19T05:56:25;3.97;;;1.10;;
3841;SDS011;1936;47.074;15.336;2023-09-19T05:58:28;3.60;;;1.40;;
3841;SDS011;1936;47.074;15.336;2023-09-19T06:00:32;2.80;;;1.47;;
3841;SDS011;1936;47.074;15.336;2023-09-19T06:02:39;4.43;;;1.50;;
3841;SDS011;1936;47.074;15.336;2023-09-19T06:04:42;2.20;;;1.00;;
3841;SDS011;1936;47.074;15.336;2023-09-19T06:06:46;1.70;;;1.30;;
3841;SDS011;1936;47.074;15.336;2023-09-19T06:08:51;2.00;;;1.33;;
3841;SDS011;1936;47.074;15.336;2023-09-19T06:10:55;6.10;;;1.57;;
3841;SDS011;1936;47.074;15.336;2023-09-19T06:12:59;5.40;;;1.50;;
3841;SDS011;1936;47.074;15.336;2023-09-19T06:15:05;9.97;;;1.60;;
3841;SDS011;1936;47.074;15.336;2023-09-19T06:17:10;2.20;;;1.50;;
3841;SDS011;1936;47.074;15.336;2023-09-19T06:19:13;1.33;;;1.20;;
3841;SDS011;1936;47.074;15.336;2023-09-19T06:21:17;3.77;;;1.60;;
3841;SDS011;1936;47.074;15.336;2023-09-19T06:23:20;1.53;;;1.27;;
3841;SDS011;1936;47.074;15.336;2023-09-19T06:25:25;5.00;;;1.60;;
3841;SDS011;1936;47.074;15.336;2023-09-19T06:27:29;2.17;;;1.33;;
3841;SDS011;1936;47.074;15.336;2023-09-19T06:29:32;2.43;;;1.50;;
3841;SDS011;1936;47.074;15.336;2023-09-19T06:31:35;2.30;;;1.57;;
3841;SDS011;1936;47.074;15.336;2023-09-19T06:33:41;1.90;;;1.40;;
3841;SDS011;1936;47.074;15.336;2023-09-19T06:35:45;2.07;;;1.60;;
3841;SDS011;1936;47.074;15.336;2023-09-19T06:37:48;2.90;;;1.97;;
3841;SDS011;1936;47.074;15.336;2023-09-19T06:39:52;4.90;;;1.70;;
3841;SDS011;1936;47.074;15.336;2023-09-19T06:41:56;3.10;;;1.90;;
3841;SDS011;1936;47.074;15.336;2023-09-19T06:44:00;3.20;;;1.47;;
3841;SDS011;1936;47.074;15.336;2023-09-19T06:46:03;3.23;;;2.10;;
3841;SDS011;1936;47.074;15.336;2023-09-19T06:48:09;4.10;;;1.60;;
3841;SDS011;1936;47.074;15.336;2023-09-19T06:50:13;4.07;;;1.93;;
3841;SDS011;1936;47.074;15.336;2023-09-19T06:52:20;1.93;;;1.73;;
3841;SDS011;1936;47.074;15.336;2023-09-19T06:54:23;4.60;;;2.20;;
3841;SDS011;1936;47.074;15.336;2023-09-19T06:56:27;2.00;;;1.90;;
3841;SDS011;1936;47.074;15.336;2023-09-19T06:58:32;1.83;;;1.60;;
3841;SDS011;1936;47.074;15.336;2023-09-19T07:00:36;2.47;;;2.17;;
3841;SDS011;1936;47.074;15.336;2023-09-19T07:02:40;2.67;;;1.80;;
3841;SDS011;1936;47.074;15.336;2023-09-19T07:04:43;3.53;;;1.80;;
3841;SDS011;1936;47.074;15.336;2023-09-19T07:06:49;3.80;;;2.70;;
3841;SDS011;1936;47.074;15.336;2023-09-19T07:08:52;2.33;;;1.43;;
3841;SDS011;1936;47.074;15.336;2023-09-19T07:10:57;2.50;;;1.33;;
3841;SDS011;1936;47.074;15.336;2023-09-19T07:13:02;4.13;;;1.90;;
3841;SDS011;1936;47.074;15.336;2023-09-19T07:15:09;3.00;;;2.03;;
3841;SDS011;1936;47.074;15.336;2023-09-19T07:17:12;2.93;;;1.83;;
3841;SDS011;1936;47.074;15.336;2023-09-19T07:19:20;3.67;;;1.60;;
3841;SDS011;1936;47.074;15.336;2023-09-19T07:21:23;3.97;;;1.60;;
3841;SDS011;1936;47.074;15.336;2023-09-19T07:23:27;2.50;;;1.57;;
3841;SDS011;1936;47.074;15.336;2023-09-19T07:25:31;3.20;;;1.60;;
3841;SDS011;1936;47.074;15.336;2023-09-19T07:27:35;2.40;;;1.60;;
3841;SDS011;1936;47.074;15.336;2023-09-19T07:29:38;6.63;;;2.23;;
3841;SDS011;1936;47.074;15.336;2023-09-19T07:31:44;2.47;;;1.80;;
3841;SDS011;1936;47.074;15.336;2023-09-19T07:33:49;2.97;;;1.90;;
3841;SDS011;1936;47.074;15.336;2023-09-19T07:35:53;3.50;;;1.93;;
3841;SDS011;1936;47.074;15.336;2023-09-19T07:37:56;2.03;;;1.60;;
3841;SDS011;1936;47.074;15.336;2023-09-19T07:40:03;2.37;;;1.90;;
3841;SDS011;1936;47.074;15.336;2023-09-19T07:42:08;1.90;;;1.50;;
3841;SDS011;1936;47.074;15.336;2023-09-19T07:44:13;1.90;;;1.40;;
3841;SDS011;1936;47.074;15.336;2023-09-19T07:46:16;2.90;;;2.37;;
3841;SDS011;1936;47.074;15.336;2023-09-19T07:48:21;3.40;;;2.33;;
3841;SDS011;1936;47.074;15.336;2023-09-19T07:50:25;1.97;;;1.77;;
3841;SDS011;1936;47.074;15.336;2023-09-19T07:52:28;1.90;;;1.30;;
3841;SDS011;1936;47.074;15.336;2023-09-19T07:54:32;2.43;;;1.33;;
3841;SDS011;1936;47.074;15.336;2023-09-19T07:56:37;3.07;;;1.63;;
3841;SDS011;1936;47.074;15.336;2023-09-19T07:58:40;2.97;;;1.30;;
3841;SDS011;1936;47.074;15.336;2023-09-19T08:00:45;5.03;;;1.50;;
3841;SDS011;1936;47.074;15.336;2023-09-19T08:02:49;3.77;;;1.33;;
3841;SDS011;1936;47.074;15.336;2023-09-19T08:05:06;2.43;;;1.37;;
3841;SDS011;1936;47.074;15.336;2023-09-19T08:07:11;1.80;;;1.30;;
3841;SDS011;1936;47.074;15.336;2023-09-19T08:09:15;2.70;;;0.73;;
3841;SDS011;1936;47.074;15.336;2023-09-19T08:11:25;2.00;;;1.13;;
3841;SDS011;1936;47.074;15.336;2023-09-19T08:13:32;1.83;;;1.67;;
3841;SDS011;1936;47.074;15.336;2023-09-19T08:15:35;1.37;;;1.13;;
3841;SDS011;1936;47.074;15.336;2023-09-19T08:17:40;1.73;;;1.03;;
3841;SDS011;1936;47.074;15.336;2023-09-19T08:19:45;1.63;;;1.37;;
3841;SDS011;1936;47.074;15.336;2023-09-19T08:21:52;2.60;;;0.80;;
3841;SDS011;1936;47.074;15.336;2023-09-19T08:23:56;2.67;;;0.80;;
3841;SDS011;1936;47.074;15.336;2023-09-19T08:25:59;5.00;;;0.93;;
3841;SDS011;1936;47.074;15.336;2023-09-19T08:28:08;2.37;;;0.80;;
3841;SDS011;1936;47.074;15.336;2023-09-19T08:30:15;2.10;;;1.50;;
3841;SDS011;1936;47.074;15.336;2023-09-19T08:32:21;2.43;;;1.10;;
3841;SDS011;1936;47.074;15.336;2023-09-19T08:34:27;3.40;;;1.40;;
3841;SDS011;1936;47.074;15.336;2023-09-19T08:36:34;3.37;;;1.07;;
3841;SDS011;1936;47.074;15.336;2023-09-19T08:38:41;2.30;;;1.10;;
3841;SDS011;1936;47.074;15.336;2023-09-19T08:40:45;3.80;;;1.23;;
3841;SDS011;1936;47.074;15.336;2023-09-19T08:42:49;1.53;;;0.83;;
3841;SDS011;1936;47.074;15.336;2023-09-19T08:44:53;2.63;;;0.97;;
3841;SDS011;1936;47.074;15.336;2023-09-19T08:47:00;1.43;;;0.87;;
3841;SDS011;1936;47.074;15.336;2023-09-19T08:49:08;2.80;;;1.10;;
3841;SDS011;1936;47.074;15.336;2023-09-19T08:51:17;1.23;;;0.80;;
3841;SDS011;1936;47.074;15.336;2023-09-19T08:53:26;1.50;;;1.00;;
3841;SDS011;1936;47.074;15.336;2023-09-19T08:55:32;3.43;;;1.00;;
3841;SDS011;1936;47.074;15.336;2023-09-19T08:57:36;2.40;;;1.20;;
3841;SDS011;1936;47.074;15.336;2023-09-19T08:59:43;1.50;;;0.90;;
3841;SDS011;1936;47.074;15.336;2023-09-19T09:01:49;2.10;;;1.00;;
3841;SDS011;1936;47.074;15.336;2023-09-19T09:03:55;4.60;;;1.03;;
3841;SDS011;1936;47.074;15.336;2023-09-19T09:06:00;2.43;;;1.10;;
3841;SDS011;1936;47.074;15.336;2023-09-19T09:08:05;3.53;;;0.87;;
3841;SDS011;1936;47.074;15.336;2023-09-19T09:10:09;1.00;;;0.90;;
3841;SDS011;1936;47.074;15.336;2023-09-19T09:12:14;1.00;;;0.80;;
3841;SDS011;1936;47.074;15.336;2023-09-19T09:14:18;1.63;;;0.80;;
3841;SDS011;1936;47.074;15.336;2023-09-19T09:16:23;1.80;;;1.17;;
3841;SDS011;1936;47.074;15.336;2023-09-19T09:18:28;1.57;;;0.80;;
3841;SDS011;1936;47.074;15.336;2023-09-19T09:20:31;1.77;;;1.03;;
3841;SDS011;1936;47.074;15.336;2023-09-19T09:22:35;3.00;;;1.37;;
3841;SDS011;1936;47.074;15.336;2023-09-19T09:24:50;1.90;;;0.97;;
3841;SDS011;1936;47.074;15.336;2023-09-19T09:26:55;3.80;;;1.17;;
3841;SDS011;1936;47.074;15.336;2023-09-19T09:29:01;3.90;;;0.90;;
3841;SDS011;1936;47.074;15.336;2023-09-19T09:31:04;1.50;;;0.70;;
3841;SDS011;1936;47.074;15.336;2023-09-19T09:33:11;0.80;;;0.70;;
3841;SDS011;1936;47.074;15.336;2023-09-19T09:35:17;1.57;;;1.20;;
3841;SDS011;1936;47.074;15.336;2023-09-19T09:37:23;1.83;;;0.90;;
3841;SDS011;1936;47.074;15.336;2023-09-19T09:39:29;1.10;;;0.70;;
3841;SDS011;1936;47.074;15.336;2023-09-19T09:41:35;1.30;;;1.00;;
3841;SDS011;1936;47.074;15.336;2023-09-19T09:43:41;6.07;;;0.97;;
3841;SDS011;1936;47.074;15.336;2023-09-19T09:45:49;1.23;;;0.80;;
3841;SDS011;1936;47.074;15.336;2023-09-19T09:48:29;5.73;;;1.20;;
3841;SDS011;1936;47.074;15.336;2023-09-19T09:50:34;3.13;;;1.67;;
3841;SDS011;1936;47.074;15.336;2023-09-19T09:52:46;1.10;;;0.87;;
3841;SDS011;1936;47.074;15.336;2023-09-19T09:54:59;1.63;;;1.13;;
3841;SDS011;1936;47.074;15.336;2023-09-19T09:57:07;1.80;;;0.93;;
3841;SDS011;1936;47.074;15.336;2023-09-19T09:59:19;2.17;;;1.37;;
3841;SDS011;1936;47.074;15.336;2023-09-19T10:01:26;1.90;;;0.73;;
3841;SDS011;1936;47.074;15.336;2023-09-19T10:03:33;1.23;;;1.00;;
3841;SDS011;1936;47.074;15.336;2023-09-19T10:05:43;2.57;;;1.47;;
3841;SDS011;1936;47.074;15.336;2023-09-19T10:07:48;6.23;;;1.63;;
3841;SDS011;1936;47.074;15.336;2023-09-19T10:09:54;2.90;;;1.67;;
3841;SDS011;1936;47.074;15.336;2023-09-19T10:12:06;1.60;;;1.00;;
3841;SDS011;1936;47.074;15.336;2023-09-19T10:14:11;1.83;;;1.30;;
3841;SDS011;1936;47.074;15.336;2023-09-19T10:16:15;1.93;;;1.10;;
3841;SDS011;1936;47.074;15.336;2023-09-19T10:18:23;1.30;;;0.70;;
3841;SDS011;1936;47.074;15.336;2023-09-19T10:20:29;0.80;;;0.77;;
3841;SDS011;1936;47.074;15.336;2023-09-19T10:22:38;0.80;;;0.80;;
3841;SDS011;1936;47.074;15.336;2023-09-19T10:24:43;1.43;;;1.00;;
3841;SDS011;1936;47.074;15.336;2023-09-19T10:27:03;1.80;;;1.10;;
3841;SDS011;1936;47.074;15.336;2023-09-19T10:29:10;1.67;;;0.90;;
3841;SDS011;1936;47.074;15.336;2023-09-19T10:31:18;2.87;;;1.40;;
3841;SDS011;1936;47.074;15.336;2023-09-19T10:33:24;0.90;;;0.80;;
3841;SDS011;1936;47.074;15.336;2023-09-19T10:35:28;0.70;;;0.60;;
3841;SDS011;1936;47.074;15.336;2023-09-19T10:37:31;1.43;;;1.20;;
3841;SDS011;1936;47.074;15.336;2023-09-19T10:39:36;2.10;;;0.90;;
3841;SDS011;1936;47.074;15.336;2023-09-19T10:41:43;2.10;;;1.07;;
3841;SDS011;1936;47.074;15.336;2023-09-19T10:43:48;1.47;;;0.83;;
3841;SDS011;1936;47.074;15.336;2023-09-19T10:45:57;1.60;;;0.80;;
3841;SDS011;1936;47.074;15.336;2023-09-19T10:48:05;3.80;;;0.80;;
3841;SDS011;1936;47.074;15.336;2023-09-19T10:50:12;2.07;;;1.23;;
3841;SDS011;1936;47.074;15.336;2023-09-19T10:52:24;1.33;;;1.23;;
3841;SDS011;1936;47.074;15.336;2023-09-19T10:54:31;0.93;;;0.93;;
3841;SDS011;1936;47.074;15.336;2023-09-19T10:56:41;2.83;;;1.20;;
3841;SDS011;1936;47.074;15.336;2023-09-19T10:58:50;1.20;;;1.10;;
3841;SDS011;1936;47.074;15.336;2023-09-19T11:00:54;1.70;;;0.93;;
3841;SDS011;1936;47.074;15.336;2023-09-19T11:03:16;0.87;;;0.80;;
3841;SDS011;1936;47.074;15.336;2023-09-19T11:05:24;2.00;;;0.80;;
3841;SDS011;1936;47.074;15.336;2023-09-19T11:07:27;1.93;;;1.03;;
3841;SDS011;1936;47.074;15.336;2023-09-19T11:09:42;1.40;;;0.83;;
3841;SDS011;1936;47.074;15.336;2023-09-19T11:11:48;0.80;;;0.70;;
3841;SDS011;1936;47.074;15.336;2023-09-19T11:19:22;1.40;;;0.93;;
3841;SDS011;1936;47.074;15.336;2023-09-19T11:21:41;1.53;;;0.90;;
3841;SDS011;1936;47.074;15.336;2023-09-19T11:26:39;0.90;;;0.80;;
3841;SDS011;1936;47.074;15.336;2023-09-19T11:28:49;1.50;;;1.20;;
3841;SDS011;1936;47.074;15.336;2023-09-19T11:31:41;1.47;;;0.90;;
3841;SDS011;1936;47.074;15.336;2023-09-19T11:33:45;2.10;;;0.93;;
3841;SDS011;1936;47.074;15.336;2023-09-19T11:36:00;1.10;;;0.97;;
3841;SDS011;1936;47.074;15.336;2023-09-19T11:38:05;0.80;;;0.80;;
3841;SDS011;1936;47.074;15.336;2023-09-19T11:40:13;2.80;;;1.23;;
3841;SDS011;1936;47.074;15.336;2023-09-19T11:44:36;2.23;;;1.00;;
3841;SDS011;1936;47.074;15.336;2023-09-19T11:46:51;2.53;;;0.83;;
3841;SDS011;1936;47.074;15.336;2023-09-19T11:48:56;2.30;;;1.00;;
3841;SDS011;1936;47.074;15.336;2023-09-19T11:51:12;1.13;;;0.57;;
3841;SDS011;1936;47.074;15.336;2023-09-19T11:53:22;1.63;;;0.80;;
3841;SDS011;1936;47.074;15.336;2023-09-19T11:55:27;1.27;;;0.70;;
3841;SDS011;1936;47.074;15.336;2023-09-19T11:57:34;2.47;;;1.13;;
3841;SDS011;1936;47.074;15.336;2023-09-19T11:59:38;4.70;;;0.90;;
3841;SDS011;1936;47.074;15.336;2023-09-19T12:01:42;1.30;;;1.20;;
3841;SDS011;1936;47.074;15.336;2023-09-19T12:03:56;1.00;;;0.80;;
3841;SDS011;1936;47.074;15.336;2023-09-19T12:06:01;2.00;;;1.07;;
3841;SDS011;1936;47.074;15.336;2023-09-19T12:08:05;1.53;;;0.70;;
3841;SDS011;1936;47.074;15.336;2023-09-19T12:10:11;0.90;;;0.80;;
3841;SDS011;1936;47.074;15.336;2023-09-19T12:12:19;1.33;;;0.97;;
3841;SDS011;1936;47.074;15.336;2023-09-19T12:14:23;2.07;;;0.97;;
3841;SDS011;1936;47.074;15.336;2023-09-19T12:16:27;1.43;;;0.80;;
3841;SDS011;1936;47.074;15.336;2023-09-19T12:18:32;1.73;;;0.70;;
3841;SDS011;1936;47.074;15.336;2023-09-19T12:20:43;0.90;;;0.70;;
3841;SDS011;1936;47.074;15.336;2023-09-19T12:22:51;0.90;;;0.77;;
3841;SDS011;1936;47.074;15.336;2023-09-19T12:25:02;1.03;;;0.70;;
3841;SDS011;1936;47.074;15.336;2023-09-19T12:27:11;1.80;;;0.97;;
3841;SDS011;1936;47.074;15.336;2023-09-19T12:29:15;1.47;;;0.90;;
3841;SDS011;1936;47.074;15.336;2023-09-19T12:31:22;1.17;;;1.00;;
3841;SDS011;1936;47.074;15.336;2023-09-19T12:33:28;2.30;;;0.70;;
3841;SDS011;1936;47.074;15.336;2023-09-19T12:35:33;2.40;;;0.90;;
3841;SDS011;1936;47.074;15.336;2023-09-19T12:37:37;1.20;;;0.67;;
3841;SDS011;1936;47.074;15.336;2023-09-19T12:39:42;2.53;;;0.80;;
3841;SDS011;1936;47.074;15.336;2023-09-19T12:41:50;1.50;;;0.90;;
3841;SDS011;1936;47.074;15.336;2023-09-19T12:43:56;3.40;;;1.33;;
3841;SDS011;1936;47.074;15.336;2023-09-19T12:46:01;0.90;;;0.90;;
3841;SDS011;1936;47.074;15.336;2023-09-19T12:48:19;1.17;;;0.97;;
3841;SDS011;1936;47.074;15.336;2023-09-19T12:50:24;1.50;;;1.00;;
3841;SDS011;1936;47.074;15.336;2023-09-19T12:52:34;1.73;;;0.90;;
3841;SDS011;1936;47.074;15.336;2023-09-19T12:54:38;1.53;;;0.90;;
3841;SDS011;1936;47.074;15.336;2023-09-19T12:56:43;1.53;;;0.93;;
3841;SDS011;1936;47.074;15.336;2023-09-19T12:58:50;1.33;;;0.90;;
3841;SDS011;1936;47.074;15.336;2023-09-19T13:00:57;1.50;;;0.90;;